createdAt,value
2023-03-03T00:01:06.062Z,24.03
2023-03-03T00:03:34.491Z,23.27
2023-03-03T00:06:03.810Z,20.97
2023-03-03T00:08:33.467Z,22.23
2023-03-03T00:11:03.260Z,23.10
2023-03-03T00:13:32.876Z,23.87
2023-03-03T00:16:15.326Z,23.37
2023-03-03T00:18:46.071Z,26.77
2023-03-03T00:21:26.470Z,21.57
2023-03-03T00:23:56.724Z,23.97
2023-03-03T00:26:30.328Z,25.00
2023-03-03T00:28:58.406Z,25.20
2023-03-03T00:31:33.026Z,23.23
2023-03-03T00:34:21.241Z,24.67
2023-03-03T00:36:52.921Z,24.67
2023-03-03T00:39:28.355Z,29.43
2023-03-03T00:41:57.566Z,23.87
2023-03-03T00:44:42.850Z,24.67
2023-03-03T00:47:28.779Z,25.43
2023-03-03T00:50:33.353Z,24.10
2023-03-03T00:53:12.183Z,27.23
2023-03-03T00:55:41.756Z,22.73
2023-03-03T00:58:09.861Z,25.53
2023-03-03T01:00:39.670Z,24.27
2023-03-03T01:03:09.597Z,30.07
2023-03-03T01:05:37.725Z,25.37
2023-03-03T01:08:06.147Z,25.17
2023-03-03T01:10:37.557Z,26.20
2023-03-03T01:13:07.715Z,28.67
2023-03-03T01:15:35.901Z,26.63
2023-03-03T01:18:04.072Z,26.53
2023-03-03T01:20:31.989Z,27.97
2023-03-03T01:22:59.939Z,26.33
2023-03-03T01:25:29.553Z,26.57
2023-03-03T01:27:58.164Z,33.07
2023-03-03T01:30:28.384Z,31.40
2023-03-03T01:32:56.337Z,26.87
2023-03-03T01:35:24.705Z,34.60
2023-03-03T01:37:52.811Z,27.80
2023-03-03T01:40:23.997Z,27.83
2023-03-03T01:42:52.644Z,33.23
2023-03-03T01:45:22.940Z,28.67
2023-03-03T01:48:00.211Z,26.93
2023-03-03T01:50:35.488Z,31.43
2023-03-03T01:53:05.864Z,29.80
2023-03-03T01:55:37.658Z,30.20
2023-03-03T01:58:10.020Z,32.20
2023-03-03T02:00:42.072Z,29.87
2023-03-03T02:03:11.685Z,31.57
2023-03-03T02:05:42.281Z,28.97
2023-03-03T02:08:13.593Z,30.50
2023-03-03T02:10:41.753Z,32.30
2023-03-03T02:13:09.767Z,31.20
2023-03-03T02:15:37.687Z,30.70
2023-03-03T02:18:07.642Z,31.60
2023-03-03T02:20:51.793Z,30.97
2023-03-03T02:23:24.330Z,32.70
2023-03-03T02:26:08.238Z,32.90
2023-03-03T02:28:38.936Z,33.10
2023-03-03T02:31:13.049Z,30.30
2023-03-03T02:33:41.500Z,33.63
2023-03-03T02:36:13.438Z,33.53
2023-03-03T02:38:45.738Z,32.90
2023-03-03T02:41:22.433Z,33.70
2023-03-03T02:43:57.590Z,30.47
2023-03-03T02:46:25.545Z,32.77
2023-03-03T02:48:53.581Z,28.07
2023-03-03T02:51:21.560Z,32.67
2023-03-03T02:53:49.476Z,30.13
2023-03-03T02:56:19.092Z,34.57
2023-03-03T02:58:47.043Z,32.87
2023-03-03T03:01:15.252Z,31.07
2023-03-03T03:03:43.272Z,30.33
2023-03-03T03:06:11.523Z,36.13
2023-03-03T03:08:39.525Z,35.10
2023-03-03T03:11:07.954Z,30.13
2023-03-03T03:13:37.167Z,31.47
2023-03-03T03:16:05.637Z,33.43
2023-03-03T03:18:33.544Z,31.70
2023-03-03T03:21:08.251Z,34.63
2023-03-03T03:23:36.924Z,32.43
2023-03-03T03:26:05.416Z,32.40
2023-03-03T03:28:33.393Z,31.90
2023-03-03T03:31:03.011Z,31.03
2023-03-03T03:33:30.959Z,31.23
2023-03-03T03:35:59.635Z,27.73
2023-03-03T03:38:29.755Z,32.33
2023-03-03T03:40:57.734Z,32.60
2023-03-03T03:43:26.050Z,31.93
2023-03-03T03:45:54.375Z,31.43
2023-03-03T03:48:23.660Z,34.53
2023-03-03T03:50:51.971Z,34.43
2023-03-03T03:53:20.460Z,32.13
2023-03-03T03:55:48.678Z,34.90
2023-03-03T03:58:17.927Z,34.23
2023-03-03T04:00:47.271Z,33.17
2023-03-03T04:03:15.425Z,33.83
2023-03-03T04:05:44.830Z,33.77
2023-03-03T04:08:12.984Z,34.07
2023-03-03T04:10:41.112Z,33.83
2023-03-03T04:13:08.982Z,34.90
2023-03-03T04:15:36.926Z,29.43
2023-03-03T04:18:05.655Z,29.30
2023-03-03T04:20:33.463Z,26.80
2023-03-03T04:23:03.010Z,31.27
2023-03-03T04:25:30.897Z,32.23
2023-03-03T04:27:58.742Z,28.87
2023-03-03T04:30:27.063Z,35.83
2023-03-03T04:32:55.002Z,33.13
2023-03-03T04:35:23.068Z,33.57
2023-03-03T04:37:51.138Z,31.87
2023-03-03T04:40:20.596Z,32.43
2023-03-03T04:42:48.542Z,31.97
2023-03-03T04:45:16.838Z,35.00
2023-03-03T04:47:45.077Z,28.30
2023-03-03T04:50:13.382Z,32.43
2023-03-03T04:52:41.269Z,28.83
2023-03-03T04:55:10.713Z,32.10
2023-03-03T04:57:40.026Z,34.63
2023-03-03T05:00:09.432Z,35.30
2023-03-03T05:02:37.521Z,32.03
2023-03-03T05:05:06.232Z,33.70
2023-03-03T05:07:34.380Z,33.90
2023-03-03T05:10:02.211Z,34.07
2023-03-03T05:12:30.137Z,34.10
2023-03-03T05:14:59.336Z,35.63
2023-03-03T05:17:27.202Z,29.77
2023-03-03T05:19:57.272Z,33.07
2023-03-03T05:22:26.033Z,29.03
2023-03-03T05:24:54.038Z,32.07
2023-03-03T05:27:22.041Z,30.67
2023-03-03T05:29:50.333Z,34.27
2023-03-03T05:32:20.544Z,34.00
2023-03-03T05:34:52.494Z,29.20
2023-03-03T05:37:20.390Z,31.93
2023-03-03T05:39:48.288Z,26.83
2023-03-03T05:42:16.190Z,29.53
2023-03-03T05:44:44.131Z,31.77
2023-03-03T05:47:12.519Z,33.17
2023-03-03T05:49:41.888Z,25.73
2023-03-03T05:52:09.892Z,26.73
2023-03-03T05:54:37.864Z,32.60
2023-03-03T05:57:05.816Z,30.40
2023-03-03T05:59:33.688Z,31.17
2023-03-03T06:02:01.713Z,33.13
2023-03-03T06:04:29.619Z,30.37
2023-03-03T06:06:58.921Z,30.10
2023-03-03T06:09:27.298Z,26.63
2023-03-03T06:11:55.498Z,28.00
2023-03-03T06:14:26.935Z,27.67
2023-03-03T06:16:55.069Z,26.37
2023-03-03T06:19:22.986Z,25.43
2023-03-03T06:21:50.970Z,25.33
2023-03-03T06:24:20.208Z,28.80
2023-03-03T06:26:48.257Z,25.23
2023-03-03T06:29:16.292Z,26.63
2023-03-03T06:31:44.789Z,30.03
2023-03-03T06:34:12.701Z,29.60
2023-03-03T06:36:40.578Z,26.43
2023-03-03T06:39:08.480Z,29.73
2023-03-03T06:41:37.800Z,32.43
2023-03-03T06:44:06.230Z,32.47
2023-03-03T06:46:34.150Z,29.23
2023-03-03T06:49:03.093Z,31.27
2023-03-03T06:51:35.025Z,32.70
2023-03-03T06:54:07.807Z,30.63
2023-03-03T06:56:38.419Z,30.80
2023-03-03T06:59:13.692Z,28.47
2023-03-03T07:01:42.329Z,28.33
2023-03-03T07:04:23.373Z,31.50
2023-03-03T07:06:51.395Z,33.67
2023-03-03T07:09:24.011Z,32.47
2023-03-03T07:11:54.717Z,34.37
2023-03-03T07:14:22.602Z,31.13
2023-03-03T07:16:57.253Z,28.43
2023-03-03T07:19:31.573Z,31.50
2023-03-03T07:21:59.757Z,32.20
2023-03-03T07:24:29.289Z,32.97
2023-03-03T07:27:02.407Z,31.10
2023-03-03T07:29:31.503Z,31.30
2023-03-03T07:32:00.590Z,31.40
2023-03-03T07:34:37.558Z,31.20
2023-03-03T07:37:14.698Z,34.47
2023-03-03T07:39:46.262Z,29.87
2023-03-03T07:42:23.598Z,32.37
2023-03-03T07:44:53.255Z,27.73
2023-03-03T07:47:24.538Z,31.10
2023-03-03T07:49:54.564Z,29.53
2023-03-03T07:52:30.323Z,28.03
2023-03-03T07:55:01.008Z,26.77
2023-03-03T07:57:37.850Z,27.87
2023-03-03T08:00:49.157Z,26.80
2023-03-03T08:03:20.228Z,27.77
2023-03-03T08:05:50.370Z,27.37
2023-03-03T08:08:30.571Z,28.00
2023-03-03T08:11:00.154Z,31.57
2023-03-03T08:13:38.197Z,25.17
2023-03-03T08:16:26.530Z,27.23
2023-03-03T08:18:55.811Z,26.10
2023-03-03T08:21:25.325Z,22.80
2023-03-03T08:23:54.164Z,23.17
2023-03-03T08:26:23.223Z,27.90
2023-03-03T08:28:53.322Z,24.27
2023-03-03T08:31:38.401Z,22.23
2023-03-03T08:34:08.772Z,25.27
2023-03-03T08:36:36.731Z,22.93
2023-03-03T08:39:05.983Z,22.40
2023-03-03T08:41:33.998Z,23.53
2023-03-03T08:44:03.269Z,20.27
2023-03-03T08:46:31.586Z,26.63
2023-03-03T08:48:59.744Z,28.23
2023-03-03T08:51:27.704Z,24.83
2023-03-03T08:53:56.020Z,23.13
2023-03-03T08:56:24.293Z,23.80
2023-03-03T08:59:02.302Z,28.10
2023-03-03T09:01:32.864Z,31.00
2023-03-03T09:04:03.202Z,33.40
2023-03-03T09:06:31.531Z,34.40
2023-03-03T09:08:59.478Z,36.53
2023-03-03T09:11:29.209Z,33.70
2023-03-03T09:14:03.882Z,34.43
2023-03-03T09:16:38.313Z,34.33
2023-03-03T09:19:20.456Z,32.13
2023-03-03T09:21:48.382Z,39.27
2023-03-03T09:24:25.716Z,35.10
2023-03-03T09:26:54.823Z,32.10
2023-03-03T09:29:29.142Z,33.83
2023-03-03T09:32:01.292Z,33.17
2023-03-03T09:34:40.296Z,33.97
2023-03-03T09:37:21.872Z,37.50
2023-03-03T09:39:51.900Z,38.50
2023-03-03T09:42:50.767Z,31.40
2023-03-03T09:45:55.151Z,37.60
2023-03-03T09:48:53.505Z,31.77
2023-03-03T09:51:42.614Z,32.87
2023-03-03T09:54:26.633Z,30.07
2023-03-03T09:57:06.349Z,32.47
2023-03-03T09:59:45.463Z,34.13
2023-03-03T10:02:39.045Z,30.87
2023-03-03T10:05:18.174Z,31.40
2023-03-03T10:07:56.572Z,29.80
2023-03-03T10:10:54.040Z,34.30
2023-03-03T10:13:42.398Z,30.93
2023-03-03T10:16:32.392Z,31.10
2023-03-03T10:19:04.025Z,31.27
2023-03-03T10:21:38.136Z,32.07
2023-03-03T10:24:20.582Z,33.30
2023-03-03T10:27:14.231Z,33.03
2023-03-03T10:29:51.933Z,32.70
2023-03-03T10:32:49.684Z,33.47
2023-03-03T10:35:32.188Z,33.20
2023-03-03T10:38:17.783Z,31.87
2023-03-03T10:40:51.923Z,25.90
2023-03-03T10:43:40.458Z,28.60
2023-03-03T10:46:24.930Z,33.80
2023-03-03T10:49:04.336Z,36.63
2023-03-03T10:51:40.598Z,38.77
2023-03-03T10:54:23.442Z,37.27
2023-03-03T10:56:59.942Z,35.17
2023-03-03T10:59:39.178Z,37.47
2023-03-03T11:02:17.917Z,40.00
2023-03-03T11:05:03.215Z,36.47
2023-03-03T11:07:36.476Z,34.10
2023-03-03T11:10:19.717Z,39.53
2023-03-03T11:12:57.595Z,34.73
2023-03-03T11:15:42.504Z,35.63
2023-03-03T11:18:36.439Z,36.83
2023-03-03T11:21:14.270Z,36.37
2023-03-03T11:24:14.446Z,36.23
2023-03-03T11:26:57.226Z,35.80
2023-03-03T11:29:37.079Z,34.73
2023-03-03T11:32:18.729Z,36.03
2023-03-03T11:34:57.585Z,34.27
2023-03-03T11:37:30.720Z,35.90
2023-03-03T11:40:03.840Z,40.37
2023-03-03T11:42:44.506Z,37.60
2023-03-03T11:45:19.063Z,34.47
2023-03-03T11:47:53.624Z,36.00
2023-03-03T11:50:24.761Z,34.57
2023-03-03T11:52:59.303Z,37.60
2023-03-03T11:55:31.728Z,35.33
2023-03-03T11:58:15.044Z,34.50
2023-03-03T12:00:48.745Z,38.23
2023-03-03T12:03:26.746Z,34.53
2023-03-03T12:06:13.571Z,36.50
2023-03-03T12:08:57.483Z,33.50
2023-03-03T12:11:28.566Z,35.23
2023-03-03T12:14:03.978Z,34.23
2023-03-03T12:16:45.003Z,36.23
2023-03-03T12:19:36.357Z,37.73
2023-03-03T12:22:14.840Z,43.07
2023-03-03T12:24:57.320Z,34.90
2023-03-03T12:27:35.646Z,40.47
2023-03-03T12:30:17.702Z,41.07
2023-03-03T12:32:58.412Z,33.47
2023-03-03T12:35:35.139Z,39.07
2023-03-03T12:38:10.909Z,34.43
2023-03-03T12:40:44.571Z,37.40
2023-03-03T12:43:22.581Z,38.53
2023-03-03T12:46:01.404Z,36.60
2023-03-03T12:48:37.585Z,39.00
2023-03-03T12:51:11.907Z,34.80
2023-03-03T12:53:58.422Z,33.93
2023-03-03T12:56:32.878Z,33.77
2023-03-03T12:59:05.690Z,28.93
2023-03-03T13:01:49.878Z,30.17
2023-03-03T13:04:32.900Z,29.77
2023-03-03T13:07:06.499Z,28.20
2023-03-03T13:09:45.199Z,28.90
2023-03-03T13:12:31.411Z,30.60
2023-03-03T13:15:06.244Z,28.03
2023-03-03T13:17:41.353Z,26.23
2023-03-03T13:20:21.434Z,28.37
2023-03-03T13:22:56.465Z,28.67
2023-03-03T13:25:40.428Z,28.30
2023-03-03T13:28:16.570Z,29.93
2023-03-03T13:30:49.454Z,28.87
2023-03-03T13:33:26.467Z,34.40
2023-03-03T13:35:57.564Z,27.40
2023-03-03T13:38:30.706Z,26.97
2023-03-03T13:41:06.219Z,25.70
2023-03-03T13:43:42.212Z,30.73
2023-03-03T13:46:17.099Z,35.10
2023-03-03T13:49:08.300Z,31.47
2023-03-03T13:51:46.124Z,31.03
2023-03-03T13:54:27.283Z,30.97
2023-03-03T13:57:18.650Z,29.37
2023-03-03T13:59:59.620Z,32.57
2023-03-03T14:02:48.494Z,33.60
2023-03-03T14:05:24.532Z,34.00
2023-03-03T14:07:58.736Z,36.93
2023-03-03T14:10:32.534Z,33.80
2023-03-03T14:13:05.633Z,42.33
2023-03-03T14:15:37.660Z,43.70
2023-03-03T14:18:25.829Z,47.03
2023-03-03T14:20:57.995Z,41.00
2023-03-03T14:23:32.066Z,46.43
2023-03-03T14:26:06.562Z,44.90
2023-03-03T14:28:40.832Z,42.03
2023-03-03T14:31:19.313Z,48.40
2023-03-03T14:33:58.801Z,45.20
2023-03-03T14:36:33.335Z,41.80
2023-03-03T14:39:02.089Z,40.27
2023-03-03T14:41:40.215Z,38.57
2023-03-03T14:44:26.901Z,35.93
2023-03-03T14:47:22.629Z,41.57
2023-03-03T14:49:51.844Z,40.30
2023-03-03T14:52:29.534Z,45.40
2023-03-03T14:55:00.230Z,49.23
2023-03-03T14:57:46.272Z,42.90
2023-03-03T15:00:31.118Z,49.90
2023-03-03T15:03:19.017Z,44.23
2023-03-03T15:05:50.777Z,48.30
2023-03-03T15:08:32.260Z,45.83
2023-03-03T15:11:15.002Z,48.43
2023-03-03T15:13:42.987Z,43.03
2023-03-03T15:16:17.627Z,43.90
2023-03-03T15:19:11.667Z,43.00
2023-03-03T15:21:46.943Z,47.27
2023-03-03T15:24:22.567Z,44.33
2023-03-03T15:26:55.163Z,39.83
2023-03-03T15:29:31.625Z,42.37
2023-03-03T15:32:07.471Z,40.60
2023-03-03T15:34:40.936Z,40.03
2023-03-03T15:37:25.419Z,42.30
2023-03-03T15:39:59.888Z,43.43
2023-03-03T15:42:35.793Z,44.77
2023-03-03T15:45:13.181Z,38.40
2023-03-03T15:47:58.605Z,39.67
2023-03-03T15:50:36.300Z,40.20
2023-03-03T15:53:18.687Z,37.40
2023-03-03T15:56:00.332Z,35.17
2023-03-03T15:58:53.937Z,39.90
2023-03-03T16:01:27.687Z,35.13
2023-03-03T16:03:58.847Z,34.40
2023-03-03T16:06:39.252Z,34.67
2023-03-03T16:09:20.139Z,35.67
2023-03-03T16:11:55.766Z,34.37
2023-03-03T16:14:53.553Z,36.07
2023-03-03T16:17:29.962Z,31.07
2023-03-03T16:20:06.286Z,39.00
2023-03-03T16:22:49.927Z,30.90
2023-03-03T16:25:32.420Z,32.57
2023-03-03T16:28:07.205Z,32.43
2023-03-03T16:30:40.019Z,32.13
2023-03-03T16:33:20.468Z,33.63
2023-03-03T16:35:57.159Z,33.27
2023-03-03T16:38:31.285Z,31.83
2023-03-03T16:41:01.902Z,36.13
2023-03-03T16:43:41.315Z,37.97
2023-03-03T16:46:22.718Z,33.23
2023-03-03T16:48:58.210Z,32.17
2023-03-03T16:51:35.791Z,29.03
2023-03-03T16:54:09.145Z,33.30
2023-03-03T16:56:44.341Z,33.07
2023-03-03T16:59:43.993Z,33.27
2023-03-03T17:02:47.933Z,30.77
2023-03-03T17:05:25.899Z,30.70
2023-03-03T17:08:11.567Z,30.60
2023-03-03T17:10:43.510Z,30.07
2023-03-03T17:13:47.049Z,31.70
2023-03-03T17:16:23.919Z,31.17
2023-03-03T17:19:03.735Z,33.23
2023-03-03T17:21:47.410Z,30.57
2023-03-03T17:24:24.921Z,30.80
2023-03-03T17:27:04.721Z,29.77
2023-03-03T17:29:46.943Z,31.93
2023-03-03T17:32:30.380Z,35.03
2023-03-03T17:35:15.690Z,31.07
2023-03-03T17:37:55.022Z,36.93
2023-03-03T17:40:34.165Z,39.67
2023-03-03T17:43:06.146Z,39.70
2023-03-03T17:45:38.802Z,46.40
2023-03-03T17:48:24.822Z,47.80
2023-03-03T17:51:20.539Z,41.77
2023-03-03T17:54:13.363Z,48.57
2023-03-03T17:56:48.393Z,49.17
2023-03-03T17:59:37.925Z,50.53
2023-03-03T18:02:41.267Z,40.83
2023-03-03T18:05:30.816Z,43.03
2023-03-03T18:08:16.233Z,44.20
2023-03-03T18:11:16.547Z,49.23
2023-03-03T18:14:16.352Z,44.23
2023-03-03T18:17:12.150Z,45.70
2023-03-03T18:20:09.263Z,46.53
2023-03-03T18:22:43.958Z,44.63
2023-03-03T18:25:14.776Z,47.20
2023-03-03T18:27:45.450Z,51.23
2023-03-03T18:30:49.295Z,48.40
2023-03-03T18:33:18.047Z,46.63
2023-03-03T18:35:49.374Z,55.27
2023-03-03T18:38:34.636Z,53.10
2023-03-03T18:41:03.662Z,49.20
2023-03-03T18:43:55.230Z,47.03
2023-03-03T18:46:49.442Z,48.83
2023-03-03T18:49:18.553Z,52.33
2023-03-03T18:52:13.786Z,51.73
2023-03-03T18:54:43.629Z,54.63
2023-03-03T18:57:29.842Z,60.10
2023-03-03T19:00:11.175Z,63.27
2023-03-03T19:02:46.338Z,58.00
2023-03-03T19:05:23.290Z,60.00
2023-03-03T19:07:58.132Z,62.63
2023-03-03T19:11:02.803Z,63.27
2023-03-03T19:13:49.789Z,63.57
2023-03-03T19:16:37.813Z,74.60
2023-03-03T19:19:14.246Z,70.03
2023-03-03T19:21:43.917Z,72.77
2023-03-03T19:24:30.680Z,70.63
2023-03-03T19:27:15.824Z,73.23
2023-03-03T19:30:20.904Z,62.77
2023-03-03T19:33:32.369Z,70.73
2023-03-03T19:36:29.392Z,67.47
2023-03-03T19:39:07.014Z,63.00
2023-03-03T19:41:55.178Z,64.77
2023-03-03T19:44:36.162Z,69.17
2023-03-03T19:47:11.577Z,66.90
2023-03-03T19:49:52.479Z,71.20
2023-03-03T19:52:28.638Z,72.93
2023-03-03T19:55:14.048Z,82.43
2023-03-03T19:57:51.583Z,71.53
2023-03-03T20:00:27.743Z,74.60
2023-03-03T20:03:24.797Z,77.73
2023-03-03T20:05:57.607Z,80.27
2023-03-03T20:08:33.207Z,75.83
2023-03-03T20:11:07.631Z,73.17
2023-03-03T20:13:50.057Z,77.10
2023-03-03T20:16:31.742Z,76.67
2023-03-03T20:19:24.461Z,70.37
2023-03-03T20:22:05.433Z,78.33
2023-03-03T20:24:51.144Z,78.57
2023-03-03T20:27:21.481Z,82.77
2023-03-03T20:30:05.995Z,82.43
2023-03-03T20:32:47.948Z,73.90
2023-03-03T20:35:29.395Z,73.33
2023-03-03T20:38:08.361Z,69.93
2023-03-03T20:40:44.627Z,73.97
2023-03-03T20:43:23.843Z,76.23
2023-03-03T20:46:00.864Z,73.87
2023-03-03T20:48:52.808Z,79.77
2023-03-03T20:51:29.626Z,79.37
2023-03-03T20:54:09.105Z,73.53
2023-03-03T20:56:43.838Z,70.60
2023-03-03T20:59:21.571Z,77.43
2023-03-03T21:01:54.404Z,70.87
2023-03-03T21:04:25.630Z,71.17
2023-03-03T21:06:54.970Z,75.50
2023-03-03T21:09:31.631Z,70.03
2023-03-03T21:12:01.461Z,86.43
2023-03-03T21:14:32.351Z,69.50
2023-03-03T21:17:02.673Z,67.93
2023-03-03T21:19:31.804Z,73.70
2023-03-03T21:22:02.848Z,72.60
2023-03-03T21:24:53.439Z,73.17
2023-03-03T21:27:30.423Z,65.50
2023-03-03T21:30:10.980Z,71.30
2023-03-03T21:32:42.026Z,75.60
2023-03-03T21:35:12.207Z,70.73
2023-03-03T21:37:50.382Z,66.60
2023-03-03T21:40:23.628Z,69.27
2023-03-03T21:42:52.862Z,73.80
2023-03-03T21:45:21.335Z,71.33
2023-03-03T21:47:49.256Z,67.73
2023-03-03T21:50:20.237Z,78.73
2023-03-03T21:52:49.878Z,68.23
2023-03-03T21:55:17.966Z,68.53
2023-03-03T21:57:45.819Z,80.23
2023-03-03T22:00:14.632Z,76.70
2023-03-03T22:02:42.515Z,77.07
2023-03-03T22:05:10.635Z,72.93
2023-03-03T22:07:38.556Z,70.70
2023-03-03T22:10:10.005Z,81.53
2023-03-03T22:12:38.002Z,67.57
2023-03-03T22:15:06.947Z,69.80
2023-03-03T22:17:34.894Z,75.80
2023-03-03T22:20:03.034Z,77.20
2023-03-03T22:22:30.918Z,75.93
2023-03-03T22:24:58.811Z,74.77
2023-03-03T22:27:28.093Z,72.97
2023-03-03T22:29:56.015Z,70.07
2023-03-03T22:32:23.936Z,69.33
2023-03-03T22:34:51.792Z,65.57
2023-03-03T22:37:19.730Z,68.70
2023-03-03T22:39:47.673Z,66.90
2023-03-03T22:42:15.551Z,77.87
2023-03-03T22:44:45.968Z,67.63
2023-03-03T22:47:13.958Z,69.57
2023-03-03T22:49:42.616Z,67.07
2023-03-03T22:52:10.586Z,62.20
2023-03-03T22:54:38.489Z,62.57
2023-03-03T22:57:06.349Z,62.33
2023-03-03T22:59:34.610Z,66.13
2023-03-03T23:02:03.982Z,70.33
2023-03-03T23:04:32.949Z,65.37
2023-03-03T23:07:01.387Z,67.27
2023-03-03T23:09:29.244Z,66.67
2023-03-03T23:11:57.178Z,67.97
2023-03-03T23:14:26.237Z,67.13
2023-03-03T23:16:54.462Z,68.53
2023-03-03T23:19:24.403Z,61.70
2023-03-03T23:21:52.285Z,68.80
2023-03-03T23:24:20.213Z,69.53
2023-03-03T23:26:51.698Z,67.83
2023-03-03T23:29:19.597Z,66.63
2023-03-03T23:31:47.499Z,66.73
2023-03-03T23:34:16.455Z,71.33
2023-03-03T23:36:45.822Z,70.40
2023-03-03T23:39:13.771Z,63.27
2023-03-03T23:41:41.676Z,59.80
2023-03-03T23:44:09.676Z,69.70
2023-03-03T23:46:37.936Z,62.17
2023-03-03T23:49:05.940Z,72.47
2023-03-03T23:51:33.890Z,69.47
2023-03-03T23:54:03.125Z,73.77
2023-03-03T23:56:31.072Z,64.70
2023-03-03T23:58:58.985Z,62.17
